Ayersville, North Carolina
Current Conditions -  °F | °C
As of 9:55 AM on Saturday 20 Dec 2014 (Local Time) from KSIF Reporting Station
Light Snow Light Snow  
Wind Chill: 33°   Ceiling: 2800
Heat Index: 33°   Visibility: 5mi
Dew Point: 28°   Wind: 0mph
Humidity: 80%   Direction: NA
Pressure: 30.3"   Gusts: NA
Location:  36.4479°N, 79.9473°W
Report Text: KSIF 201455Z AUTO 00000KT 5SM -SN OVC028 01/M02 A3030 RMK AO2 T00071024
Loading
Personal Weather Stations






























Interactive Weather Map New forecast layout! Learn more

10-Day Weather Forecast

Advertisements
Track Severe Weather on mobile